sensor_id;sensor_type;location;lat;lon;timestamp;pressure;altitude;pressure_sealevel;temperature;humidity
77639;BME280;66802;52.574;14.398;2023-05-10T03:01:53;101372.50;;;7.68;65.30
77639;BME280;66802;52.574;14.398;2023-05-10T03:04:19;101367.38;;;7.65;65.65
77639;BME280;66802;52.574;14.398;2023-05-10T03:06:45;101374.59;;;7.64;64.91
77639;BME280;66802;52.574;14.398;2023-05-10T03:09:12;101369.97;;;7.78;64.96
77639;BME280;66802;52.574;14.398;2023-05-10T03:17:06;101367.84;;;7.59;65.75
77639;BME280;66802;52.574;14.398;2023-05-10T03:19:43;101372.72;;;7.54;65.59
77639;BME280;66802;52.574;14.398;2023-05-10T03:22:24;101364.78;;;7.52;65.29
77639;BME280;66802;52.574;14.398;2023-05-10T03:24:54;101372.72;;;7.43;66.30
77639;BME280;66802;52.574;14.398;2023-05-10T03:27:25;101367.06;;;7.35;66.58
77639;BME280;66802;52.574;14.398;2023-05-10T03:30:29;101375.38;;;7.31;66.83
77639;BME280;66802;52.574;14.398;2023-05-10T03:32:55;101367.75;;;7.25;66.84
77639;BME280;66802;52.574;14.398;2023-05-10T03:35:23;101355.94;;;7.28;67.60
77639;BME280;66802;52.574;14.398;2023-05-10T03:37:49;101358.72;;;7.26;67.40
77639;BME280;66802;52.574;14.398;2023-05-10T03:40:14;101364.09;;;7.26;67.52
77639;BME280;66802;52.574;14.398;2023-05-10T03:42:41;101364.25;;;7.36;67.29
77639;BME280;66802;52.574;14.398;2023-05-10T03:45:07;101366.22;;;7.34;67.96
77639;BME280;66802;52.574;14.398;2023-05-10T03:47:33;101369.41;;;7.39;67.14
77639;BME280;66802;52.574;14.398;2023-05-10T03:49:58;101370.25;;;7.40;67.23
77639;BME280;66802;52.574;14.398;2023-05-10T03:52:24;101367.81;;;7.48;66.99
77639;BME280;66802;52.574;14.398;2023-05-10T03:54:50;101365.66;;;7.53;67.17
77639;BME280;66802;52.574;14.398;2023-05-10T03:57:16;101359.53;;;7.51;67.02
77639;BME280;66802;52.574;14.398;2023-05-10T03:59:41;101368.34;;;7.53;66.88
77639;BME280;66802;52.574;14.398;2023-05-10T04:02:07;101365.13;;;7.48;66.83
77639;BME280;66802;52.574;14.398;2023-05-10T04:04:32;101368.78;;;7.47;67.21
77639;BME280;66802;52.574;14.398;2023-05-10T04:06:58;101370.13;;;7.41;67.84
77639;BME280;66802;52.574;14.398;2023-05-10T04:09:24;101367.09;;;7.46;67.49
77639;BME280;66802;52.574;14.398;2023-05-10T04:11:49;101367.47;;;7.52;67.75
77639;BME280;66802;52.574;14.398;2023-05-10T04:14:15;101359.41;;;7.52;67.60
77639;BME280;66802;52.574;14.398;2023-05-10T04:16:43;101355.75;;;7.53;68.33
77639;BME280;66802;52.574;14.398;2023-05-10T04:19:09;101362.97;;;7.64;68.26
77639;BME280;66802;52.574;14.398;2023-05-10T04:21:36;101364.44;;;7.68;68.12
77639;BME280;66802;52.574;14.398;2023-05-10T04:24:01;101365.44;;;7.78;67.94
77639;BME280;66802;52.574;14.398;2023-05-10T04:26:27;101357.63;;;7.86;67.78
77639;BME280;66802;52.574;14.398;2023-05-10T04:28:53;101361.28;;;7.96;67.57
77639;BME280;66802;52.574;14.398;2023-05-10T04:31:18;101352.34;;;8.07;67.27
77639;BME280;66802;52.574;14.398;2023-05-10T04:33:44;101364.81;;;8.19;67.35
77639;BME280;66802;52.574;14.398;2023-05-10T04:36:09;101353.56;;;8.25;67.35
77639;BME280;66802;52.574;14.398;2023-05-10T04:38:35;101359.81;;;8.37;67.01
77639;BME280;66802;52.574;14.398;2023-05-10T04:41:08;101353.91;;;8.54;66.68
77639;BME280;66802;52.574;14.398;2023-05-10T04:43:34;101354.59;;;8.67;66.30
77639;BME280;66802;52.574;14.398;2023-05-10T04:46:00;101352.59;;;8.81;66.10
77639;BME280;66802;52.574;14.398;2023-05-10T04:48:25;101353.56;;;8.79;66.17
77639;BME280;66802;52.574;14.398;2023-05-10T04:50:52;101346.56;;;8.88;65.59
77639;BME280;66802;52.574;14.398;2023-05-10T04:53:17;101350.47;;;8.95;65.50
77639;BME280;66802;52.574;14.398;2023-05-10T04:55:43;101354.66;;;9.09;65.30
77639;BME280;66802;52.574;14.398;2023-05-10T04:58:09;101344.00;;;9.19;65.20
77639;BME280;66802;52.574;14.398;2023-05-10T05:00:34;101357.78;;;9.25;64.80
77639;BME280;66802;52.574;14.398;2023-05-10T05:03:00;101350.88;;;9.32;65.42
77639;BME280;66802;52.574;14.398;2023-05-10T05:05:26;101342.28;;;9.38;65.36
77639;BME280;66802;52.574;14.398;2023-05-10T05:07:52;101346.34;;;9.53;64.84
77639;BME280;66802;52.574;14.398;2023-05-10T05:10:19;101342.75;;;9.74;64.58
77639;BME280;66802;52.574;14.398;2023-05-10T05:12:45;101346.78;;;9.79;63.42
77639;BME280;66802;52.574;14.398;2023-05-10T05:15:10;101352.06;;;9.91;64.06
77639;BME280;66802;52.574;14.398;2023-05-10T05:17:36;101345.00;;;9.99;62.87
77639;BME280;66802;52.574;14.398;2023-05-10T05:20:02;101346.63;;;10.11;62.53
77639;BME280;66802;52.574;14.398;2023-05-10T05:22:28;101349.28;;;10.32;61.63
77639;BME280;66802;52.574;14.398;2023-05-10T05:24:54;101342.06;;;10.42;61.40
77639;BME280;66802;52.574;14.398;2023-05-10T05:27:20;101340.94;;;10.54;60.43
77639;BME280;66802;52.574;14.398;2023-05-10T05:29:55;101339.97;;;10.75;59.36
77639;BME280;66802;52.574;14.398;2023-05-10T05:32:22;101345.09;;;10.78;59.71
77639;BME280;66802;52.574;14.398;2023-05-10T05:34:48;101344.53;;;10.84;59.80
77639;BME280;66802;52.574;14.398;2023-05-10T05:37:14;101331.19;;;11.02;58.31
77639;BME280;66802;52.574;14.398;2023-05-10T05:39:40;101341.13;;;11.11;57.97
77639;BME280;66802;52.574;14.398;2023-05-10T05:42:05;101339.56;;;11.18;58.88
77639;BME280;66802;52.574;14.398;2023-05-10T05:44:31;101338.97;;;11.33;58.28
77639;BME280;66802;52.574;14.398;2023-05-10T05:46:57;101342.09;;;11.39;58.53
77639;BME280;66802;52.574;14.398;2023-05-10T05:49:22;101344.91;;;11.47;58.19
77639;BME280;66802;52.574;14.398;2023-05-10T05:51:48;101341.03;;;11.59;57.45
77639;BME280;66802;52.574;14.398;2023-05-10T05:54:15;101333.22;;;11.65;57.07
77639;BME280;66802;52.574;14.398;2023-05-10T05:56:41;101334.91;;;11.76;57.11
77639;BME280;66802;52.574;14.398;2023-05-10T05:59:09;101335.75;;;11.86;57.39
77639;BME280;66802;52.574;14.398;2023-05-10T06:01:35;101337.97;;;12.00;56.47
77639;BME280;66802;52.574;14.398;2023-05-10T06:04:01;101331.66;;;12.10;56.45
77639;BME280;66802;52.574;14.398;2023-05-10T06:06:26;101334.03;;;12.13;56.95
77639;BME280;66802;52.574;14.398;2023-05-10T06:08:52;101338.38;;;12.33;55.45
77639;BME280;66802;52.574;14.398;2023-05-10T06:13:56;101335.28;;;12.46;55.29
77639;BME280;66802;52.574;14.398;2023-05-10T06:16:32;101348.72;;;12.65;53.39
77639;BME280;66802;52.574;14.398;2023-05-10T06:23:01;101325.75;;;13.04;53.08
77639;BME280;66802;52.574;14.398;2023-05-10T06:25:29;101333.34;;;13.19;52.78
77639;BME280;66802;52.574;14.398;2023-05-10T06:28:40;101334.25;;;13.27;52.88
77639;BME280;66802;52.574;14.398;2023-05-10T06:30:49;101338.78;;;13.44;52.57
77639;BME280;66802;52.574;14.398;2023-05-10T06:39:44;101321.34;;;14.07;50.64
77639;BME280;66802;52.574;14.398;2023-05-10T06:44:48;101319.41;;;14.25;51.18
77639;BME280;66802;52.574;14.398;2023-05-10T06:47:22;101325.97;;;14.48;50.78
77639;BME280;66802;52.574;14.398;2023-05-10T06:50:28;101322.28;;;14.66;50.24
77639;BME280;66802;52.574;14.398;2023-05-10T06:53:14;101314.13;;;14.74;48.51
77639;BME280;66802;52.574;14.398;2023-05-10T06:56:09;101317.03;;;14.88;48.63
77639;BME280;66802;52.574;14.398;2023-05-10T06:58:34;101318.41;;;15.09;48.87
77639;BME280;66802;52.574;14.398;2023-05-10T07:01:03;101313.66;;;15.11;48.57
77639;BME280;66802;52.574;14.398;2023-05-10T07:03:31;101311.44;;;15.14;48.28
77639;BME280;66802;52.574;14.398;2023-05-10T07:06:03;101305.31;;;15.45;48.37
77639;BME280;66802;52.574;14.398;2023-05-10T07:08:30;101306.31;;;15.60;47.80
77639;BME280;66802;52.574;14.398;2023-05-10T07:11:03;101302.75;;;15.67;47.71
77639;BME280;66802;52.574;14.398;2023-05-10T07:13:31;101300.53;;;15.63;46.90
77639;BME280;66802;52.574;14.398;2023-05-10T07:15:57;101308.66;;;15.79;47.07
77639;BME280;66802;52.574;14.398;2023-05-10T07:18:24;101308.97;;;15.92;46.94
77639;BME280;66802;52.574;14.398;2023-05-10T07:20:49;101301.06;;;16.14;46.60
77639;BME280;66802;52.574;14.398;2023-05-10T07:23:15;101300.38;;;16.20;45.31
77639;BME280;66802;52.574;14.398;2023-05-10T07:25:45;101300.66;;;16.25;45.35
77639;BME280;66802;52.574;14.398;2023-05-10T07:28:11;101297.41;;;16.29;45.63
77639;BME280;66802;52.574;14.398;2023-05-10T07:30:36;101295.63;;;16.44;45.15
77639;BME280;66802;52.574;14.398;2023-05-10T07:33:02;101289.41;;;16.59;45.69
77639;BME280;66802;52.574;14.398;2023-05-10T07:35:27;101289.69;;;16.72;44.36
77639;BME280;66802;52.574;14.398;2023-05-10T07:37:53;101293.78;;;16.76;44.69
77639;BME280;66802;52.574;14.398;2023-05-10T07:40:19;101290.84;;;16.77;44.93
77639;BME280;66802;52.574;14.398;2023-05-10T07:42:44;101286.91;;;16.80;45.85
77639;BME280;66802;52.574;14.398;2023-05-10T07:45:10;101290.38;;;16.97;44.26
77639;BME280;66802;52.574;14.398;2023-05-10T07:47:36;101281.31;;;17.19;44.65
77639;BME280;66802;52.574;14.398;2023-05-10T07:50:01;101284.84;;;17.05;44.62
77639;BME280;66802;52.574;14.398;2023-05-10T07:52:27;101276.03;;;17.18;45.30
77639;BME280;66802;52.574;14.398;2023-05-10T07:54:52;101271.28;;;17.34;43.85
77639;BME280;66802;52.574;14.398;2023-05-10T07:57:18;101271.75;;;17.38;43.13
77639;BME280;66802;52.574;14.398;2023-05-10T07:59:44;101259.41;;;17.27;43.05
77639;BME280;66802;52.574;14.398;2023-05-10T08:02:10;101258.06;;;17.23;43.88
77639;BME280;66802;52.574;14.398;2023-05-10T08:04:36;101259.25;;;17.58;44.71
77639;BME280;66802;52.574;14.398;2023-05-10T08:07:01;101252.72;;;17.82;43.57
77639;BME280;66802;52.574;14.398;2023-05-10T08:09:27;101260.41;;;17.64;43.47
77639;BME280;66802;52.574;14.398;2023-05-10T08:11:52;101268.97;;;17.75;42.84
77639;BME280;66802;52.574;14.398;2023-05-10T08:14:18;101258.75;;;17.63;43.07
77639;BME280;66802;52.574;14.398;2023-05-10T08:16:44;101260.16;;;17.73;42.26
77639;BME280;66802;52.574;14.398;2023-05-10T08:19:09;101254.31;;;17.91;42.66
77639;BME280;66802;52.574;14.398;2023-05-10T08:21:35;101260.44;;;17.93;42.18
77639;BME280;66802;52.574;14.398;2023-05-10T08:24:01;101262.75;;;17.96;42.55
77639;BME280;66802;52.574;14.398;2023-05-10T08:26:27;101267.97;;;18.06;41.77
77639;BME280;66802;52.574;14.398;2023-05-10T08:28:52;101266.31;;;18.26;42.17
77639;BME280;66802;52.574;14.398;2023-05-10T08:31:18;101272.59;;;18.41;41.73
77639;BME280;66802;52.574;14.398;2023-05-10T08:33:43;101267.59;;;18.59;41.65
77639;BME280;66802;52.574;14.398;2023-05-10T08:36:09;101265.91;;;18.80;41.43
77639;BME280;66802;52.574;14.398;2023-05-10T08:38:35;101264.25;;;18.64;40.66
77639;BME280;66802;52.574;14.398;2023-05-10T08:41:02;101276.56;;;18.75;40.21
77639;BME280;66802;52.574;14.398;2023-05-10T08:43:28;101276.00;;;19.01;40.77
77639;BME280;66802;52.574;14.398;2023-05-10T08:45:55;101270.00;;;18.90;41.25
77639;BME280;66802;52.574;14.398;2023-05-10T08:48:24;101268.44;;;19.03;41.39
77639;BME280;66802;52.574;14.398;2023-05-10T08:50:53;101269.41;;;19.44;39.54
77639;BME280;66802;52.574;14.398;2023-05-10T08:53:24;101275.00;;;19.36;39.51
77639;BME280;66802;52.574;14.398;2023-05-10T08:55:52;101267.78;;;19.50;39.30
77639;BME280;66802;52.574;14.398;2023-05-10T08:58:19;101277.41;;;19.67;40.47
77639;BME280;66802;52.574;14.398;2023-05-10T09:00:45;101268.91;;;19.62;40.34
77639;BME280;66802;52.574;14.398;2023-05-10T09:03:12;101276.00;;;19.50;39.29
77639;BME280;66802;52.574;14.398;2023-05-10T09:05:38;101264.97;;;19.43;39.73
77639;BME280;66802;52.574;14.398;2023-05-10T09:08:06;101264.72;;;19.38;39.39
77639;BME280;66802;52.574;14.398;2023-05-10T09:10:33;101264.44;;;19.54;39.69
77639;BME280;66802;52.574;14.398;2023-05-10T09:13:00;101277.78;;;19.64;38.62
77639;BME280;66802;52.574;14.398;2023-05-10T09:17:57;101269.13;;;19.60;38.85
77639;BME280;66802;52.574;14.398;2023-05-10T09:20:24;101269.84;;;19.76;38.69
77639;BME280;66802;52.574;14.398;2023-05-10T09:22:50;101274.03;;;19.44;38.57
77639;BME280;66802;52.574;14.398;2023-05-10T09:25:16;101272.47;;;19.56;38.96
77639;BME280;66802;52.574;14.398;2023-05-10T09:27:47;101268.28;;;19.39;39.39
77639;BME280;66802;52.574;14.398;2023-05-10T09:30:22;101267.38;;;19.53;39.77
77639;BME280;66802;52.574;14.398;2023-05-10T09:32:48;101272.06;;;19.93;39.32
77639;BME280;66802;52.574;14.398;2023-05-10T09:35:18;101277.88;;;20.12;37.69
77639;BME280;66802;52.574;14.398;2023-05-10T09:37:47;101270.44;;;20.05;38.42
77639;BME280;66802;52.574;14.398;2023-05-10T09:40:24;101259.34;;;20.20;38.97
77639;BME280;66802;52.574;14.398;2023-05-10T09:43:17;101273.47;;;20.24;39.32
77639;BME280;66802;52.574;14.398;2023-05-10T09:45:42;101265.53;;;20.35;38.84
77639;BME280;66802;52.574;14.398;2023-05-10T09:48:08;101261.84;;;19.74;38.12
77639;BME280;66802;52.574;14.398;2023-05-10T09:50:33;101261.28;;;19.85;37.42
77639;BME280;66802;52.574;14.398;2023-05-10T09:53:01;101255.22;;;20.03;38.63
77639;BME280;66802;52.574;14.398;2023-05-10T09:55:46;101252.34;;;20.11;39.87
77639;BME280;66802;52.574;14.398;2023-05-10T09:58:18;101263.03;;;20.40;37.70
77639;BME280;66802;52.574;14.398;2023-05-10T10:00:45;101249.16;;;20.14;37.28
77639;BME280;66802;52.574;14.398;2023-05-10T10:03:18;101258.69;;;20.25;36.49
77639;BME280;66802;52.574;14.398;2023-05-10T10:05:58;101263.22;;;20.39;37.98
77639;BME280;66802;52.574;14.398;2023-05-10T10:08:24;101256.28;;;20.50;37.97
77639;BME280;66802;52.574;14.398;2023-05-10T10:10:53;101245.38;;;20.63;37.81
77639;BME280;66802;52.574;14.398;2023-05-10T10:13:24;101245.97;;;20.52;35.95
77639;BME280;66802;52.574;14.398;2023-05-10T10:15:52;101244.31;;;20.77;37.52
77639;BME280;66802;52.574;14.398;2023-05-10T10:18:19;101243.88;;;20.54;36.62
77639;BME280;66802;52.574;14.398;2023-05-10T10:20:49;101253.06;;;20.33;37.80
77639;BME280;66802;52.574;14.398;2023-05-10T10:23:15;101248.56;;;20.19;38.18
77639;BME280;66802;52.574;14.398;2023-05-10T10:25:41;101250.84;;;20.63;38.81
77639;BME280;66802;52.574;14.398;2023-05-10T10:28:45;101240.69;;;20.57;37.71
77639;BME280;66802;52.574;14.398;2023-05-10T10:31:25;101238.59;;;20.52;37.57
77639;BME280;66802;52.574;14.398;2023-05-10T10:34:05;101249.53;;;20.46;38.17
77639;BME280;66802;52.574;14.398;2023-05-10T10:36:39;101244.72;;;20.54;37.60
77639;BME280;66802;52.574;14.398;2023-05-10T10:39:10;101236.94;;;20.77;37.92
77639;BME280;66802;52.574;14.398;2023-05-10T10:41:39;101246.47;;;21.01;38.15
77639;BME280;66802;52.574;14.398;2023-05-10T10:47:22;101234.84;;;21.52;36.01
77639;BME280;66802;52.574;14.398;2023-05-10T10:52:45;101247.09;;;21.17;35.58
77639;BME280;66802;52.574;14.398;2023-05-10T10:55:14;101240.13;;;21.01;36.59
77639;BME280;66802;52.574;14.398;2023-05-10T11:00:25;101240.13;;;21.60;35.26
77639;BME280;66802;52.574;14.398;2023-05-10T11:02:58;101235.47;;;21.61;35.93
77639;BME280;66802;52.574;14.398;2023-05-10T11:05:50;101226.75;;;21.77;35.03
77639;BME280;66802;52.574;14.398;2023-05-10T11:08:42;101235.84;;;21.77;34.71
77639;BME280;66802;52.574;14.398;2023-05-10T11:11:17;101223.00;;;21.45;34.41
77639;BME280;66802;52.574;14.398;2023-05-10T11:14:11;101238.69;;;21.38;35.22
77639;BME280;66802;52.574;14.398;2023-05-10T11:16:44;101221.56;;;21.29;35.47
77639;BME280;66802;52.574;14.398;2023-05-10T11:19:11;101230.63;;;21.03;37.04
77639;BME280;66802;52.574;14.398;2023-05-10T11:21:50;101235.50;;;21.28;36.95
77639;BME280;66802;52.574;14.398;2023-05-10T11:24:23;101235.50;;;21.34;35.01
77639;BME280;66802;52.574;14.398;2023-05-10T11:26:53;101240.13;;;21.60;33.45
77639;BME280;66802;52.574;14.398;2023-05-10T11:29:19;101236.22;;;21.88;32.82
77639;BME280;66802;52.574;14.398;2023-05-10T11:31:47;101231.13;;;21.98;35.00
77639;BME280;66802;52.574;14.398;2023-05-10T11:34:29;101231.09;;;22.11;32.09
77639;BME280;66802;52.574;14.398;2023-05-10T11:36:56;101226.22;;;22.13;33.01
77639;BME280;66802;52.574;14.398;2023-05-10T11:39:32;101243.53;;;22.20;33.69
77639;BME280;66802;52.574;14.398;2023-05-10T11:42:01;101236.28;;;22.32;32.89
77639;BME280;66802;52.574;14.398;2023-05-10T11:44:31;101218.09;;;22.31;33.80
77639;BME280;66802;52.574;14.398;2023-05-10T11:47:01;101225.81;;;22.16;33.97
77639;BME280;66802;52.574;14.398;2023-05-10T11:49:27;101231.56;;;21.88;34.34
77639;BME280;66802;52.574;14.398;2023-05-10T11:51:53;101233.34;;;21.63;35.09
77639;BME280;66802;52.574;14.398;2023-05-10T11:54:18;101232.72;;;21.61;35.67
77639;BME280;66802;52.574;14.398;2023-05-10T11:56:44;101230.56;;;21.76;35.74
77639;BME280;66802;52.574;14.398;2023-05-10T11:59:10;101229.44;;;22.03;37.03
77639;BME280;66802;52.574;14.398;2023-05-10T12:01:39;101228.66;;;22.34;34.48
77639;BME280;66802;52.574;14.398;2023-05-10T12:04:05;101230.28;;;22.48;34.89
77639;BME280;66802;52.574;14.398;2023-05-10T12:06:32;101240.59;;;22.60;34.17
77639;BME280;66802;52.574;14.398;2023-05-10T12:09:06;101248.94;;;22.46;32.13
77639;BME280;66802;52.574;14.398;2023-05-10T12:11:37;101235.38;;;22.45;32.41
77639;BME280;66802;52.574;14.398;2023-05-10T12:14:04;101239.66;;;22.34;33.03
77639;BME280;66802;52.574;14.398;2023-05-10T12:16:30;101252.31;;;22.42;33.41
77639;BME280;66802;52.574;14.398;2023-05-10T12:18:58;101237.22;;;22.57;32.24
77639;BME280;66802;52.574;14.398;2023-05-10T12:21:25;101244.56;;;22.64;33.23
77639;BME280;66802;52.574;14.398;2023-05-10T12:23:56;101233.88;;;22.87;31.72
77639;BME280;66802;52.574;14.398;2023-05-10T12:26:25;101242.19;;;23.05;35.04
77639;BME280;66802;52.574;14.398;2023-05-10T12:28:54;101247.66;;;23.12;32.92
77639;BME280;66802;52.574;14.398;2023-05-10T12:31:20;101236.91;;;22.79;32.73
77639;BME280;66802;52.574;14.398;2023-05-10T12:33:46;101242.03;;;22.62;32.73
77639;BME280;66802;52.574;14.398;2023-05-10T12:36:16;101247.09;;;22.65;32.87
77639;BME280;66802;52.574;14.398;2023-05-10T12:38:46;101229.69;;;22.78;33.00
77639;BME280;66802;52.574;14.398;2023-05-10T12:41:16;101239.03;;;22.77;33.41
77639;BME280;66802;52.574;14.398;2023-05-10T12:43:42;101246.53;;;22.56;34.64
77639;BME280;66802;52.574;14.398;2023-05-10T12:46:10;101240.31;;;22.68;33.89
77639;BME280;66802;52.574;14.398;2023-05-10T12:48:37;101243.19;;;22.86;33.30
77639;BME280;66802;52.574;14.398;2023-05-10T12:51:04;101245.63;;;23.01;31.75
77639;BME280;66802;52.574;14.398;2023-05-10T12:53:30;101247.88;;;23.10;32.61
77639;BME280;66802;52.574;14.398;2023-05-10T12:55:56;101237.53;;;22.81;31.32
77639;BME280;66802;52.574;14.398;2023-05-10T12:58:22;101233.47;;;22.45;32.99
77639;BME280;66802;52.574;14.398;2023-05-10T13:00:48;101243.34;;;22.60;33.31
77639;BME280;66802;52.574;14.398;2023-05-10T13:03:14;101247.66;;;22.49;33.12
77639;BME280;66802;52.574;14.398;2023-05-10T13:05:41;101241.66;;;22.58;34.20
77639;BME280;66802;52.574;14.398;2023-05-10T13:08:09;101244.69;;;22.44;34.98
77639;BME280;66802;52.574;14.398;2023-05-10T13:10:59;101247.53;;;22.69;33.45
77639;BME280;66802;52.574;14.398;2023-05-10T13:13:28;101252.97;;;22.82;32.92
77639;BME280;66802;52.574;14.398;2023-05-10T13:16:12;101243.38;;;22.91;32.61
77639;BME280;66802;52.574;14.398;2023-05-10T13:18:46;101229.03;;;23.07;32.82
77639;BME280;66802;52.574;14.398;2023-05-10T13:21:12;101237.09;;;23.09;31.98
77639;BME280;66802;52.574;14.398;2023-05-10T13:23:38;101237.72;;;23.11;32.38
77639;BME280;66802;52.574;14.398;2023-05-10T13:26:03;101237.41;;;23.19;32.10
77639;BME280;66802;52.574;14.398;2023-05-10T13:28:34;101229.72;;;23.27;30.89
77639;BME280;66802;52.574;14.398;2023-05-10T13:35:02;101223.31;;;23.34;31.88
77639;BME280;66802;52.574;14.398;2023-05-10T13:37:34;101225.66;;;23.30;31.30
77639;BME280;66802;52.574;14.398;2023-05-10T13:40:03;101209.66;;;23.20;31.95
77639;BME280;66802;52.574;14.398;2023-05-10T13:42:32;101220.25;;;23.42;32.82
77639;BME280;66802;52.574;14.398;2023-05-10T13:45:06;101216.34;;;23.49;31.96
77639;BME280;66802;52.574;14.398;2023-05-10T13:47:39;101219.53;;;23.53;32.96
77639;BME280;66802;52.574;14.398;2023-05-10T13:50:13;101216.56;;;23.54;30.75
77639;BME280;66802;52.574;14.398;2023-05-10T13:52:39;101217.41;;;23.55;30.65
77639;BME280;66802;52.574;14.398;2023-05-10T13:55:04;101217.63;;;23.53;31.23
77639;BME280;66802;52.574;14.398;2023-05-10T13:57:30;101224.22;;;23.71;31.09
77639;BME280;66802;52.574;14.398;2023-05-10T13:59:56;101214.25;;;23.51;31.39
77639;BME280;66802;52.574;14.398;2023-05-10T14:02:22;101214.78;;;23.60;32.64
77639;BME280;66802;52.574;14.398;2023-05-10T14:04:48;101213.50;;;23.81;31.82
77639;BME280;66802;52.574;14.398;2023-05-10T14:07:14;101212.59;;;23.69;31.17
77639;BME280;66802;52.574;14.398;2023-05-10T14:09:39;101215.41;;;23.62;30.79
77639;BME280;66802;52.574;14.398;2023-05-10T14:12:05;101215.56;;;23.85;31.13
77639;BME280;66802;52.574;14.398;2023-05-10T14:14:31;101212.50;;;23.75;30.93
77639;BME280;66802;52.574;14.398;2023-05-10T14:16:56;101204.31;;;23.87;30.95
77639;BME280;66802;52.574;14.398;2023-05-10T14:19:22;101220.53;;;23.95;30.89
77639;BME280;66802;52.574;14.398;2023-05-10T14:21:48;101214.19;;;23.94;30.72
77639;BME280;66802;52.574;14.398;2023-05-10T14:24:13;101204.31;;;23.87;30.79
77639;BME280;66802;52.574;14.398;2023-05-10T14:26:42;101216.41;;;24.04;32.74
77639;BME280;66802;52.574;14.398;2023-05-10T14:29:07;101203.66;;;24.03;32.55
77639;BME280;66802;52.574;14.398;2023-05-10T14:31:33;101201.53;;;24.05;32.38
77639;BME280;66802;52.574;14.398;2023-05-10T14:33:59;101200.31;;;24.01;31.07
77639;BME280;66802;52.574;14.398;2023-05-10T14:36:24;101203.66;;;24.03;31.76
77639;BME280;66802;52.574;14.398;2023-05-10T14:38:50;101200.00;;;24.09;29.93
77639;BME280;66802;52.574;14.398;2023-05-10T14:41:16;101196.59;;;23.77;30.33
77639;BME280;66802;52.574;14.398;2023-05-10T14:43:43;101201.69;;;23.74;30.63
77639;BME280;66802;52.574;14.398;2023-05-10T14:46:08;101197.19;;;23.61;31.22
77639;BME280;66802;52.574;14.398;2023-05-10T14:48:34;101204.69;;;23.47;31.96
77639;BME280;66802;52.574;14.398;2023-05-10T14:51:00;101203.78;;;23.35;33.04
77639;BME280;66802;52.574;14.398;2023-05-10T14:53:25;101196.88;;;23.26;32.81
77639;BME280;66802;52.574;14.398;2023-05-10T14:55:51;101188.59;;;23.26;32.66
77639;BME280;66802;52.574;14.398;2023-05-10T14:58:17;101196.53;;;23.41;33.46
77639;BME280;66802;52.574;14.398;2023-05-10T15:00:43;101185.41;;;23.47;32.74
77639;BME280;66802;52.574;14.398;2023-05-10T15:03:09;101191.13;;;23.52;31.69
77639;BME280;66802;52.574;14.398;2023-05-10T15:05:34;101184.94;;;23.14;32.58
77639;BME280;66802;52.574;14.398;2023-05-10T15:08:02;101190.81;;;23.17;32.81
77639;BME280;66802;52.574;14.398;2023-05-10T15:10:28;101183.34;;;23.24;33.26
77639;BME280;66802;52.574;14.398;2023-05-10T15:12:53;101189.91;;;23.23;33.30
77639;BME280;66802;52.574;14.398;2023-05-10T15:15:19;101182.03;;;23.27;32.63
77639;BME280;66802;52.574;14.398;2023-05-10T15:17:45;101191.50;;;22.88;33.48
77639;BME280;66802;52.574;14.398;2023-05-10T15:20:11;101191.91;;;22.91;33.39
77639;BME280;66802;52.574;14.398;2023-05-10T15:22:36;101195.53;;;23.10;33.23
77639;BME280;66802;52.574;14.398;2023-05-10T15:25:03;101198.09;;;23.30;33.36
77639;BME280;66802;52.574;14.398;2023-05-10T15:27:30;101197.88;;;23.32;33.02
77639;BME280;66802;52.574;14.398;2023-05-10T15:29:55;101195.75;;;23.34;33.43
77639;BME280;66802;52.574;14.398;2023-05-10T15:32:21;101195.22;;;23.25;34.00
77639;BME280;66802;52.574;14.398;2023-05-10T15:34:46;101188.56;;;23.08;33.31
77639;BME280;66802;52.574;14.398;2023-05-10T15:37:12;101198.59;;;23.02;33.71
77639;BME280;66802;52.574;14.398;2023-05-10T15:39:38;101199.41;;;22.78;33.61
77639;BME280;66802;52.574;14.398;2023-05-10T15:42:03;101196.72;;;22.65;33.87
77639;BME280;66802;52.574;14.398;2023-05-10T15:44:29;101199.75;;;22.56;34.44
77639;BME280;66802;52.574;14.398;2023-05-10T15:46:54;101197.69;;;22.45;34.78
77639;BME280;66802;52.574;14.398;2023-05-10T15:49:21;101198.63;;;22.33;35.50
77639;BME280;66802;52.574;14.398;2023-05-10T15:51:46;101196.22;;;22.49;35.12
77639;BME280;66802;52.574;14.398;2023-05-10T15:54:12;101196.44;;;22.41;36.27
77639;BME280;66802;52.574;14.398;2023-05-10T15:56:37;101192.00;;;22.40;37.06
77639;BME280;66802;52.574;14.398;2023-05-10T15:59:04;101195.44;;;22.29;37.04
77639;BME280;66802;52.574;14.398;2023-05-10T16:01:30;101194.53;;;22.42;37.03
77639;BME280;66802;52.574;14.398;2023-05-10T16:03:57;101196.00;;;22.44;35.90
77639;BME280;66802;52.574;14.398;2023-05-10T16:06:22;101192.53;;;22.24;35.48
77639;BME280;66802;52.574;14.398;2023-05-10T16:08:48;101193.19;;;22.19;36.53
77639;BME280;66802;52.574;14.398;2023-05-10T16:11:13;101199.16;;;22.16;36.46
77639;BME280;66802;52.574;14.398;2023-05-10T16:13:39;101196.22;;;22.05;36.00
77639;BME280;66802;52.574;14.398;2023-05-10T16:16:04;101193.66;;;22.10;36.28
77639;BME280;66802;52.574;14.398;2023-05-10T16:18:33;101191.19;;;21.95;36.48
77639;BME280;66802;52.574;14.398;2023-05-10T16:20:59;101197.47;;;22.09;36.12
77639;BME280;66802;52.574;14.398;2023-05-10T16:23:26;101192.16;;;22.14;37.16
77639;BME280;66802;52.574;14.398;2023-05-10T16:25:53;101200.63;;;22.12;36.72